LHDC Airport Information

Runway Information
Runway 05L Length 8087 ft width 230 ft
Elevation 0 ft Threshold 0 ft Heading 48
Runway 23R Length 8087 ft Width 230 ft
Elevation 0 ft Threshold 0 ft Heading 228
Runway 05R Length 8196 ft width 131 ft
Elevation 355 ft Threshold 0 ft Heading 48
Runway 23L Length 8196 ft Width 131 ft
Elevation 359 ft Threshold 979 ft Heading 228
Airport Frequencies
Type AFIS Name INFO Frequency 125.9 MHZ
Type INFO Name BUDAPEST I Frequency 133.3 MHZ
Airport Navaids
Type NDB Name Debrecen Frequency 326 KHZ
Type NDB Name Debrecen Frequency 295 KHZ
Airport Weather Information & NOTAM
ADDS - METARS form results

(1744 UTC 13 July 2020)
Data provider http://aviationweather.gov/metar/data/
 
METAR text: LHDC 131715Z AUTO 02012KT CAVOK 20/07 Q1020 NOSIG
Conditions at: LHDC (DEBRECEN AIRPORT, HU) observed 1715 UTC 13 July 2020
Temperature: 20.0°C (68°F)
Dewpoint: 7.0°C (45°F) [RH = 43%]
Pressure (altimeter): 30.12 inches Hg (1020.0 mb)
Winds: from the NNE (20 degrees) at 14 MPH (12 knots; 6.2 m/s)
Visibility: 6 or more miles (10+ km)
Ceiling: ceiling and visibility are OK
Clouds: unknown
Weather: no significant weather observed at this time

METAR text: LHDC 131645Z AUTO 02012KT 350V050 CAVOK 21/07 Q1020 NOSIG
Conditions at: LHDC (DEBRECEN AIRPORT, HU) observed 1645 UTC 13 July 2020
Temperature: 21.0°C (70°F)
Dewpoint: 7.0°C (45°F) [RH = 40%]
Pressure (altimeter): 30.12 inches Hg (1020.0 mb)
Winds: from the NNE (20 degrees) at 14 MPH (12 knots; 6.2 m/s)
Visibility: 6 or more miles (10+ km)
Ceiling: ceiling and visibility are OK
Clouds: unknown
Weather: no significant weather observed at this time

Forecast for: LHDC (DEBRECEN AIRPORT, HU)
Text: TAF LHDC 131715Z 1318/1403 02009KT CAVOK
Forecast period: 1800 UTC 13 July 2020 to 0300 UTC 14 July 2020
Forecast type: FROM: standard forecast or significant change
Winds: from the NNE (20 degrees) at 10 MPH (9 knots; 4.6 m/s)
Visibility: 6 or more miles 10+ km)
Ceiling: unknown
Clouds: missing
Weather: NSW  (no significant weather)